Time;durP1;ratioP1;P1;durP2;ratioP2;P2;SDS_P1;SDS_P2;PMS_P1;PMS_P2;Temp;Humidity;BMP_temperature;BMP_pressure;BME280_temperature;BME280_humidity;BME280_pressure;Samples;Min_cycle;Max_cycle;Signal;HPM_P1;HPM_P2
2023/06/19 00:01:59;;;;;;;5.70;5.00;;;20.00;99.90;;;;;;5084286;28;20218;-53
2023/06/19 00:04:26;;;;;;;5.23;4.77;;;20.00;99.90;;;;;;5069328;28;20850;-52
2023/06/19 00:06:53;;;;;;;6.80;4.93;;;20.00;99.90;;;;;;5081477;28;20198;-50
2023/06/19 00:09:21;;;;;;;5.77;4.60;;;20.00;99.90;;;;;;5079647;28;20273;-55
2023/06/19 00:11:48;;;;;;;5.43;4.90;;;19.90;99.90;;;;;;5084268;28;20244;-51
2023/06/19 00:14:15;;;;;;;5.57;5.17;;;19.90;99.90;;;;;;5068423;28;20720;-55
2023/06/19 00:16:42;;;;;;;5.53;5.03;;;19.90;99.90;;;;;;5072093;28;20225;-49
2023/06/19 00:19:11;;;;;;;4.70;4.40;;;19.90;99.90;;;;;;5081166;28;20194;-53
2023/06/19 00:21:39;;;;;;;5.33;4.83;;;19.90;99.90;;;;;;5074584;28;20202;-50
2023/06/19 00:24:06;;;;;;;5.23;4.80;;;19.80;99.90;;;;;;5083241;28;20259;-52
2023/06/19 00:26:34;;;;;;;5.67;5.13;;;19.80;99.90;;;;;;5080882;28;20186;-51
2023/06/19 00:29:01;;;;;;;5.60;5.07;;;19.80;99.90;;;;;;5077633;28;20194;-50
2023/06/19 00:31:30;;;;;;;5.50;4.90;;;19.80;99.90;;;;;;5041943;28;20213;-52
2023/06/19 00:33:57;;;;;;;5.20;4.80;;;19.80;99.90;;;;;;5083476;28;20990;-51
2023/06/19 00:36:27;;;;;;;5.50;5.00;;;19.70;99.90;;;;;;5054539;28;20776;-49
2023/06/19 00:38:54;;;;;;;5.83;5.33;;;19.70;99.90;;;;;;5064668;28;20553;-52
2023/06/19 00:41:22;;;;;;;6.63;5.03;;;19.70;99.90;;;;;;5073799;28;20771;-53
2023/06/19 00:43:52;;;;;;;5.30;4.87;;;19.70;99.90;;;;;;5083901;28;20607;-52
2023/06/19 00:46:18;;;;;;;5.87;5.30;;;19.70;99.90;;;;;;5064336;28;20197;-53
2023/06/19 00:48:45;;;;;;;6.17;5.37;;;19.70;99.90;;;;;;5079888;28;20201;-50
2023/06/19 00:51:12;;;;;;;5.83;5.33;;;19.60;99.90;;;;;;5058659;28;20214;-53
2023/06/19 00:53:39;;;;;;;5.37;4.90;;;19.60;99.90;;;;;;5072480;28;20296;-50
2023/06/19 00:56:06;;;;;;;5.97;5.57;;;19.50;99.90;;;;;;5077090;28;20239;-52
2023/06/19 00:58:35;;;;;;;6.47;5.47;;;19.50;99.90;;;;;;5080507;28;20190;-52
2023/06/19 01:01:03;;;;;;;5.60;5.20;;;19.50;99.90;;;;;;5063230;28;20234;-47
2023/06/19 01:03:30;;;;;;;5.33;4.93;;;19.40;99.90;;;;;;5041318;28;20235;-48
2023/06/19 01:06:01;;;;;;;6.30;5.60;;;19.40;99.90;;;;;;5077793;28;20664;-47
2023/06/19 01:08:43;;;;;;;5.63;5.13;;;19.30;99.90;;;;;;5053007;28;20862;-47
2023/06/19 01:11:12;;;;;;;6.03;5.53;;;19.30;99.90;;;;;;5081760;28;20617;-53
2023/06/19 01:13:45;;;;;;;5.93;5.37;;;19.30;99.90;;;;;;5063678;28;20235;-48
2023/06/19 01:16:15;;;;;;;5.83;5.33;;;19.30;99.90;;;;;;5067869;28;20902;-55
2023/06/19 01:18:43;;;;;;;5.50;5.00;;;19.20;99.90;;;;;;5048230;28;20218;-50
2023/06/19 01:21:12;;;;;;;5.40;5.00;;;19.30;99.90;;;;;;5067185;28;20645;-52
2023/06/19 01:23:41;;;;;;;5.67;5.20;;;19.20;99.90;;;;;;5078390;28;20202;-51
2023/06/19 01:26:08;;;;;;;6.30;5.70;;;19.20;99.90;;;;;;5086276;28;20186;-52
2023/06/19 01:28:37;;;;;;;5.90;5.40;;;19.20;99.90;;;;;;5060438;28;20186;-49
2023/06/19 01:31:08;;;;;;;7.07;6.00;;;19.20;99.90;;;;;;5068673;28;20268;-52
2023/06/19 01:33:38;;;;;;;6.33;5.80;;;19.20;99.90;;;;;;5066200;28;20271;-49
2023/06/19 01:36:07;;;;;;;5.67;5.07;;;19.20;99.90;;;;;;5086298;28;20193;-55
2023/06/19 01:38:35;;;;;;;5.70;5.17;;;19.20;99.90;;;;;;5064616;28;20841;-50
2023/06/19 01:41:05;;;;;;;5.17;4.77;;;19.10;99.90;;;;;;5056373;28;20225;-52
2023/06/19 01:43:33;;;;;;;5.30;4.90;;;19.10;99.90;;;;;;5065834;28;20259;-49
2023/06/19 01:46:00;;;;;;;6.17;5.67;;;19.10;99.90;;;;;;5068843;28;20194;-49
2023/06/19 01:48:28;;;;;;;5.73;5.30;;;19.10;99.90;;;;;;5046643;28;20248;-54
2023/06/19 01:50:55;;;;;;;5.90;5.40;;;19.10;99.90;;;;;;5075387;28;20218;-52
2023/06/19 01:53:21;;;;;;;5.97;5.47;;;19.10;99.90;;;;;;5080907;28;20194;-48
2023/06/19 01:55:48;;;;;;;5.77;5.23;;;19.10;99.90;;;;;;5056477;28;20258;-47
2023/06/19 01:58:16;;;;;;;6.40;5.93;;;19.10;99.90;;;;;;5068483;28;20193;-50
2023/06/19 02:00:43;;;;;;;6.17;5.57;;;19.20;99.90;;;;;;5065217;28;20214;-52
2023/06/19 02:03:10;;;;;;;6.07;5.47;;;19.10;99.90;;;;;;5065869;28;20270;-55
2023/06/19 02:05:39;;;;;;;6.10;5.20;;;19.10;99.90;;;;;;5045433;28;20206;-56
2023/06/19 02:08:06;;;;;;;5.53;5.00;;;19.10;99.90;;;;;;5084957;28;20181;-47
2023/06/19 02:10:37;;;;;;;5.87;5.37;;;19.10;99.90;;;;;;5059187;28;20218;-55
2023/06/19 02:13:03;;;;;;;6.77;5.27;;;19.10;99.90;;;;;;5084701;28;20170;-49
2023/06/19 02:15:32;;;;;;;8.17;5.47;;;19.10;99.90;;;;;;5063716;28;20564;-56
2023/06/19 02:18:00;;;;;;;5.33;4.90;;;19.20;99.90;;;;;;5080755;28;20193;-49
2023/06/19 02:20:27;;;;;;;12.30;5.47;;;19.20;99.90;;;;;;5067890;28;20222;-50
2023/06/19 02:22:56;;;;;;;5.37;4.90;;;19.20;99.90;;;;;;5064255;28;20234;-48
2023/06/19 02:25:23;;;;;;;5.40;4.90;;;19.30;99.90;;;;;;5086006;28;20247;-52
2023/06/19 02:27:50;;;;;;;5.60;5.07;;;19.30;99.90;;;;;;5060270;28;20747;-54
2023/06/19 02:30:17;;;;;;;6.33;5.73;;;19.30;99.90;;;;;;5066653;28;20214;-52
2023/06/19 02:32:45;;;;;;;6.83;6.13;;;19.30;99.90;;;;;;5064663;28;20190;-50
2023/06/19 02:35:15;;;;;;;5.97;5.30;;;19.30;99.90;;;;;;5067623;28;20233;-51
2023/06/19 02:37:42;;;;;;;6.10;5.60;;;19.30;99.90;;;;;;5064501;28;20190;-55
2023/06/19 02:40:10;;;;;;;5.67;5.17;;;19.30;99.90;;;;;;5078288;28;20214;-51
2023/06/19 02:42:37;;;;;;;5.60;5.20;;;19.30;99.90;;;;;;5058830;28;20222;-54
2023/06/19 02:45:04;;;;;;;5.17;4.77;;;19.30;99.90;;;;;;5065826;28;20197;-50
2023/06/19 02:47:31;;;;;;;5.50;5.10;;;19.40;99.90;;;;;;5084843;28;20186;-50
2023/06/19 02:50:01;;;;;;;5.20;4.80;;;19.40;99.90;;;;;;5047527;28;20969;-53
2023/06/19 02:52:28;;;;;;;5.20;4.80;;;19.40;99.90;;;;;;5061358;28;20667;-49
2023/06/19 02:54:55;;;;;;;6.60;5.40;;;19.40;99.90;;;;;;5063733;28;20194;-51
2023/06/19 02:57:22;;;;;;;6.47;5.37;;;19.40;99.90;;;;;;5079107;28;20723;-51
2023/06/19 02:59:49;;;;;;;5.83;5.33;;;19.40;99.90;;;;;;5081316;28;20275;-50
2023/06/19 03:02:16;;;;;;;5.53;5.13;;;19.40;99.90;;;;;;5084610;28;21066;-53
2023/06/19 03:04:45;;;;;;;5.93;5.43;;;19.40;99.90;;;;;;5077286;28;20552;-56
2023/06/19 03:07:14;;;;;;;5.53;5.07;;;19.40;99.90;;;;;;5040568;28;20219;-53
2023/06/19 03:09:41;;;;;;;6.63;6.00;;;19.40;99.90;;;;;;5063244;28;20210;-54
2023/06/19 03:12:10;;;;;;;5.47;5.07;;;19.30;99.90;;;;;;5065328;28;20202;-50
2023/06/19 03:14:37;;;;;;;6.13;5.53;;;19.30;99.90;;;;;;5071292;28;20260;-52
2023/06/19 03:17:05;;;;;;;8.17;5.43;;;19.30;99.90;;;;;;5061820;28;20198;-49
2023/06/19 03:19:32;;;;;;;5.80;5.37;;;19.30;99.90;;;;;;5062957;28;20427;-47
2023/06/19 03:21:59;;;;;;;5.43;5.03;;;19.30;99.90;;;;;;5047181;28;20263;-49
2023/06/19 03:24:27;;;;;;;5.83;5.23;;;19.30;99.90;;;;;;5081340;28;20186;-54
2023/06/19 03:27:03;;;;;;;6.47;5.43;;;19.30;99.90;;;;;;5056304;28;20259;-55
2023/06/19 03:29:31;;;;;;;6.37;5.80;;;19.30;99.90;;;;;;5061090;28;20206;-51
2023/06/19 03:32:07;;;;;;;6.30;5.70;;;19.30;99.90;;;;;;5058004;28;20232;-56
2023/06/19 03:34:35;;;;;;;7.00;6.30;;;19.20;99.90;;;;;;5065098;28;20194;-47
2023/06/19 03:37:06;;;;;;;5.80;5.20;;;19.30;99.90;;;;;;5056351;28;20672;-56
2023/06/19 03:39:36;;;;;;;5.97;5.57;;;19.30;99.90;;;;;;5050882;28;20216;-52
2023/06/19 03:42:09;;;;;;;6.20;5.67;;;19.30;99.90;;;;;;5060404;28;20307;-56
2023/06/19 03:44:36;;;;;;;7.07;5.63;;;19.30;99.90;;;;;;5056135;28;20194;-50
2023/06/19 03:47:03;;;;;;;6.37;5.83;;;19.30;99.90;;;;;;5065395;28;20216;-53
2023/06/19 03:49:31;;;;;;;6.03;5.43;;;19.40;99.90;;;;;;5076947;28;20216;-55
2023/06/19 03:51:57;;;;;;;7.10;6.17;;;19.40;99.90;;;;;;5058941;28;20255;-48
2023/06/19 03:54:26;;;;;;;5.90;5.40;;;19.40;99.90;;;;;;5046065;28;20274;-54
2023/06/19 03:56:54;;;;;;;6.07;5.57;;;19.40;99.90;;;;;;5064024;28;20349;-49
2023/06/19 03:59:21;;;;;;;6.43;5.77;;;19.40;99.90;;;;;;5053834;28;20251;-51
2023/06/19 04:01:48;;;;;;;6.60;6.00;;;19.40;99.90;;;;;;5045865;28;20661;-51
2023/06/19 04:04:14;;;;;;;6.57;5.90;;;19.40;99.90;;;;;;5051596;28;20186;-47
2023/06/19 04:06:41;;;;;;;6.10;5.60;;;19.40;99.90;;;;;;5083584;28;20602;-51
2023/06/19 04:09:08;;;;;;;5.87;5.37;;;19.40;99.90;;;;;;5042485;28;20214;-54
2023/06/19 04:11:35;;;;;;;6.43;5.83;;;19.40;99.90;;;;;;5066050;28;20210;-50
2023/06/19 04:14:04;;;;;;;6.70;5.70;;;19.40;99.90;;;;;;5054912;28;20293;-53
2023/06/19 04:16:30;;;;;;;6.40;5.87;;;19.40;99.90;;;;;;5077116;28;20202;-47
2023/06/19 04:18:57;;;;;;;6.97;5.90;;;19.40;99.90;;;;;;5082498;28;20209;-54
2023/06/19 04:21:24;;;;;;;5.73;5.23;;;19.40;99.90;;;;;;5058714;28;20489;-46
2023/06/19 04:23:51;;;;;;;5.80;5.27;;;19.40;99.90;;;;;;5060936;28;20324;-53
2023/06/19 04:26:18;;;;;;;6.70;6.20;;;19.40;99.90;;;;;;5059721;28;20186;-53
2023/06/19 04:28:45;;;;;;;6.07;5.57;;;19.50;99.90;;;;;;5080292;28;20265;-48
2023/06/19 04:31:17;;;;;;;6.47;5.87;;;19.50;99.90;;;;;;5073349;28;20241;-49
2023/06/19 04:33:44;;;;;;;6.97;6.27;;;19.50;99.90;;;;;;5072708;28;20190;-55
2023/06/19 04:36:11;;;;;;;7.13;6.53;;;19.50;99.90;;;;;;5076273;28;20202;-52
2023/06/19 04:38:38;;;;;;;6.67;6.03;;;19.50;99.90;;;;;;5064551;28;20979;-53
2023/06/19 04:41:05;;;;;;;6.70;6.10;;;19.50;99.90;;;;;;5073530;28;20212;-50
2023/06/19 04:43:33;;;;;;;6.80;6.30;;;19.50;99.90;;;;;;5082537;28;20608;-53
2023/06/19 04:46:00;;;;;;;6.93;6.23;;;19.50;99.90;;;;;;5070102;28;20919;-51
2023/06/19 04:48:29;;;;;;;6.83;6.07;;;19.50;99.90;;;;;;5082984;28;20198;-48
2023/06/19 04:50:56;;;;;;;6.90;6.20;;;19.50;99.90;;;;;;5068479;28;20210;-48
2023/06/19 04:53:23;;;;;;;6.73;6.23;;;19.50;99.90;;;;;;5074405;28;20212;-55
2023/06/19 04:55:51;;;;;;;6.73;6.10;;;19.60;99.90;;;;;;5058836;28;20314;-49
2023/06/19 04:58:17;;;;;;;6.13;5.67;;;19.50;99.90;;;;;;5081796;28;20679;-51
2023/06/19 05:00:44;;;;;;;6.93;6.33;;;19.50;99.90;;;;;;5073552;28;20278;-53
2023/06/19 05:03:13;;;;;;;6.87;6.37;;;19.60;99.90;;;;;;5076987;28;20237;-52
2023/06/19 05:05:41;;;;;;;8.03;6.40;;;19.50;99.90;;;;;;5080264;28;20189;-50
2023/06/19 05:08:08;;;;;;;7.00;6.40;;;19.60;99.90;;;;;;5072612;28;20993;-55
2023/06/19 05:10:35;;;;;;;7.93;7.13;;;19.50;99.90;;;;;;5068979;28;20298;-48
2023/06/19 05:13:03;;;;;;;7.50;6.80;;;19.50;99.90;;;;;;5071975;28;20273;-52
2023/06/19 05:15:29;;;;;;;6.87;6.27;;;19.60;99.90;;;;;;5076238;28;20195;-51
2023/06/19 05:17:56;;;;;;;7.60;6.83;;;19.60;99.90;;;;;;5068695;28;20279;-49
2023/06/19 05:20:23;;;;;;;7.63;7.03;;;19.60;99.90;;;;;;5082970;28;20282;-50
2023/06/19 05:22:51;;;;;;;7.53;6.93;;;19.60;99.90;;;;;;5072891;28;20209;-52
2023/06/19 05:25:18;;;;;;;7.30;6.70;;;19.60;99.90;;;;;;5078267;28;20182;-51
2023/06/19 05:27:45;;;;;;;7.63;7.00;;;19.70;99.90;;;;;;5052698;28;20546;-53
2023/06/19 05:30:12;;;;;;;7.67;6.97;;;19.60;99.90;;;;;;5082207;28;20279;-53
2023/06/19 05:32:39;;;;;;;7.70;6.90;;;19.60;99.90;;;;;;5064962;28;20268;-52
2023/06/19 05:35:07;;;;;;;7.43;6.73;;;19.70;99.90;;;;;;5070175;28;20234;-50
2023/06/19 05:37:34;;;;;;;8.00;7.30;;;19.70;99.90;;;;;;5076624;28;20203;-54
2023/06/19 05:40:03;;;;;;;7.00;6.50;;;19.70;99.90;;;;;;5063548;28;20296;-50
2023/06/19 05:42:30;;;;;;;8.03;7.43;;;19.70;99.90;;;;;;5060010;28;20286;-53
2023/06/19 05:44:57;;;;;;;7.97;7.20;;;19.70;99.90;;;;;;5053155;28;20584;-52
2023/06/19 05:47:25;;;;;;;7.27;6.63;;;19.70;99.90;;;;;;5052341;28;20214;-52
2023/06/19 05:49:52;;;;;;;7.97;7.17;;;19.70;99.90;;;;;;5079788;28;20205;-51
2023/06/19 05:52:19;;;;;;;7.93;7.17;;;19.70;99.90;;;;;;5076108;28;20268;-52
2023/06/19 05:54:46;;;;;;;7.40;6.80;;;19.80;99.90;;;;;;5077194;28;20612;-46
2023/06/19 05:57:15;;;;;;;7.83;7.00;;;19.80;99.90;;;;;;5041831;28;20210;-56
2023/06/19 05:59:42;;;;;;;7.67;6.97;;;19.70;99.90;;;;;;5082402;28;20210;-47
2023/06/19 06:02:09;;;;;;;7.67;6.97;;;19.70;99.90;;;;;;5067504;28;20202;-52
2023/06/19 06:04:36;;;;;;;8.13;7.43;;;19.70;99.90;;;;;;5069494;28;20257;-56
2023/06/19 06:07:03;;;;;;;8.73;7.70;;;19.70;99.90;;;;;;5077103;28;20210;-46
2023/06/19 06:09:30;;;;;;;7.13;6.53;;;19.80;99.90;;;;;;5085851;28;20197;-46
2023/06/19 06:11:57;;;;;;;8.10;7.40;;;19.80;99.90;;;;;;5046138;28;20202;-50
2023/06/19 06:14:26;;;;;;;7.97;7.30;;;19.90;99.90;;;;;;5060749;28;20229;-49
2023/06/19 06:16:53;;;;;;;7.77;7.07;;;19.90;99.90;;;;;;5081845;28;20190;-49
2023/06/19 06:19:22;;;;;;;7.67;7.07;;;19.90;99.90;;;;;;5072081;28;20198;-53
2023/06/19 06:21:49;;;;;;;8.17;7.47;;;19.90;99.90;;;;;;5080688;28;20264;-53
2023/06/19 06:24:16;;;;;;;8.43;7.73;;;20.00;99.90;;;;;;5086024;28;20222;-51
2023/06/19 06:26:43;;;;;;;8.00;7.40;;;20.00;99.90;;;;;;5067260;28;20876;-53
2023/06/19 06:29:10;;;;;;;9.47;7.63;;;20.00;99.90;;;;;;5065308;28;20226;-53
2023/06/19 06:31:39;;;;;;;9.53;7.80;;;20.00;99.90;;;;;;5085803;28;20193;-51
2023/06/19 06:34:06;;;;;;;9.07;7.90;;;20.00;99.90;;;;;;5068032;28;20902;-54
2023/06/19 06:36:33;;;;;;;7.97;7.30;;;20.00;99.90;;;;;;5076897;28;20239;-48
2023/06/19 06:39:00;;;;;;;9.50;7.37;;;19.90;99.90;;;;;;5078555;28;20190;-51
2023/06/19 06:41:26;;;;;;;7.80;7.10;;;19.80;99.90;;;;;;5080362;28;20633;-51
2023/06/19 06:43:55;;;;;;;8.87;8.17;;;19.70;99.90;;;;;;5055486;28;21198;-52
2023/06/19 06:46:22;;;;;;;9.83;8.90;;;19.70;99.90;;;;;;5085177;28;20197;-53
2023/06/19 06:48:50;;;;;;;8.57;7.77;;;19.60;99.90;;;;;;5080325;28;20178;-50
2023/06/19 06:51:17;;;;;;;9.57;8.77;;;19.60;99.90;;;;;;5073196;28;20214;-51
2023/06/19 06:53:44;;;;;;;9.33;8.43;;;19.60;99.90;;;;;;5076853;28;20729;-52
2023/06/19 06:56:11;;;;;;;9.47;8.60;;;19.60;99.90;;;;;;5080306;28;20186;-50
2023/06/19 06:58:38;;;;;;;9.20;8.30;;;19.70;99.90;;;;;;5076295;28;20201;-53
2023/06/19 07:01:05;;;;;;;8.80;8.10;;;19.80;99.90;;;;;;5063873;28;20438;-51
2023/06/19 07:03:32;;;;;;;8.80;8.00;;;19.70;99.90;;;;;;5078651;28;20751;-51
2023/06/19 07:06:01;;;;;;;9.90;8.20;;;19.80;99.90;;;;;;5075112;28;20288;-51
2023/06/19 07:08:27;;;;;;;9.53;8.60;;;19.80;99.90;;;;;;5084573;28;20190;-51
2023/06/19 07:10:54;;;;;;;9.23;8.43;;;19.80;99.90;;;;;;5082124;28;20205;-52
2023/06/19 07:13:21;;;;;;;9.70;8.80;;;19.80;99.90;;;;;;5067313;28;20221;-51
2023/06/19 07:15:48;;;;;;;9.40;8.50;;;19.70;99.90;;;;;;5056686;28;20198;-49
2023/06/19 07:18:15;;;;;;;10.30;9.03;;;19.80;99.90;;;;;;5084998;28;20189;-52
2023/06/19 07:20:41;;;;;;;9.03;8.33;;;19.80;99.90;;;;;;5080731;28;20707;-52
2023/06/19 07:23:10;;;;;;;14.80;8.80;;;19.90;99.90;;;;;;5074976;28;22141;-50
2023/06/19 07:25:37;;;;;;;9.13;8.43;;;20.00;99.90;;;;;;5078866;28;20204;-49
2023/06/19 07:28:05;;;;;;;9.43;8.53;;;19.90;99.90;;;;;;5076439;28;20224;-52
2023/06/19 07:30:32;;;;;;;9.33;8.53;;;20.00;99.90;;;;;;5066031;28;20233;-51
2023/06/19 07:32:59;;;;;;;9.97;9.17;;;20.00;99.90;;;;;;5064304;28;20687;-52
2023/06/19 07:35:26;;;;;;;9.00;8.23;;;20.00;99.90;;;;;;5071267;28;20198;-50
2023/06/19 07:37:52;;;;;;;9.40;8.57;;;20.00;99.90;;;;;;5067885;28;20198;-55
2023/06/19 07:40:21;;;;;;;8.87;8.17;;;20.10;99.90;;;;;;5083149;28;20271;-52
2023/06/19 07:42:47;;;;;;;10.73;9.43;;;20.10;99.90;;;;;;5077339;28;20202;-53
2023/06/19 07:45:14;;;;;;;9.27;8.57;;;20.10;99.90;;;;;;5074466;28;20857;-51
2023/06/19 07:47:41;;;;;;;10.50;9.50;;;20.10;99.90;;;;;;5061085;28;20259;-52
2023/06/19 07:50:09;;;;;;;9.77;8.73;;;20.20;99.90;;;;;;5078504;28;20263;-53
2023/06/19 07:52:36;;;;;;;9.97;8.87;;;20.20;99.90;;;;;;5064823;28;20310;-53
2023/06/19 07:55:03;;;;;;;9.43;8.63;;;20.20;99.90;;;;;;5084362;28;20190;-51
2023/06/19 07:57:31;;;;;;;9.60;8.80;;;20.20;99.90;;;;;;5076388;28;20205;-50
2023/06/19 07:59:58;;;;;;;10.00;9.10;;;20.30;99.90;;;;;;5083928;28;20213;-54
2023/06/19 08:02:24;;;;;;;9.77;8.87;;;20.30;99.90;;;;;;5058559;28;20205;-64
2023/06/19 08:04:51;;;;;;;10.70;9.67;;;20.40;99.90;;;;;;5075342;28;20202;-51
2023/06/19 08:07:18;;;;;;;9.77;8.90;;;20.50;99.90;;;;;;5080657;28;20194;-54
2023/06/19 08:09:45;;;;;;;9.93;8.93;;;20.50;99.90;;;;;;5069589;28;20219;-55
2023/06/19 08:12:12;;;;;;;9.40;8.60;;;20.60;99.90;;;;;;5083404;28;20202;-51
2023/06/19 08:14:40;;;;;;;9.13;8.43;;;20.80;99.90;;;;;;5067370;28;20275;-54
2023/06/19 08:17:07;;;;;;;10.37;9.37;;;20.90;99.90;;;;;;5076119;28;20212;-52
2023/06/19 08:19:34;;;;;;;10.47;8.53;;;21.00;99.90;;;;;;5059761;28;20696;-54
2023/06/19 08:22:01;;;;;;;10.73;9.67;;;21.10;99.90;;;;;;5083141;28;20287;-53
2023/06/19 08:24:28;;;;;;;10.80;9.83;;;21.30;99.90;;;;;;5067089;28;20217;-54
2023/06/19 08:26:55;;;;;;;9.80;8.87;;;21.40;99.90;;;;;;5078047;28;20216;-54
2023/06/19 08:29:22;;;;;;;10.87;9.30;;;21.50;99.90;;;;;;5073507;28;20275;-54
2023/06/19 08:31:50;;;;;;;10.13;9.23;;;21.60;99.90;;;;;;5081667;28;20255;-53
2023/06/19 08:34:17;;;;;;;9.83;8.93;;;21.90;99.90;;;;;;5056597;28;20229;-54
2023/06/19 08:36:44;;;;;;;9.67;8.90;;;22.10;99.90;;;;;;5077738;28;20182;-54
2023/06/19 08:39:11;;;;;;;13.80;10.27;;;22.20;99.90;;;;;;5072866;28;20721;-53
2023/06/19 08:41:39;;;;;;;10.60;9.50;;;22.20;99.90;;;;;;5079754;28;20202;-53
2023/06/19 08:44:06;;;;;;;10.83;9.83;;;22.20;99.90;;;;;;5072314;28;20217;-54
2023/06/19 08:46:34;;;;;;;10.03;9.03;;;22.30;99.90;;;;;;5069980;28;20243;-53
2023/06/19 08:49:02;;;;;;;9.20;8.47;;;22.40;99.90;;;;;;5059308;28;20267;-53
2023/06/19 08:51:30;;;;;;;10.82;9.93;;;22.60;99.90;;;;;;5078275;28;20229;-54
2023/06/19 08:54:01;;;;;;;10.05;9.15;;;22.70;99.90;;;;;;5074030;28;20198;-54
2023/06/19 08:56:28;;;;;;;10.67;9.77;;;22.80;99.90;;;;;;5079277;28;20190;-50
2023/06/19 08:58:55;;;;;;;9.88;8.98;;;23.10;99.90;;;;;;5082687;28;20249;-52
2023/06/19 09:01:23;;;;;;;9.70;8.85;;;23.30;99.90;;;;;;5071937;28;20221;-52
2023/06/19 09:03:52;;;;;;;11.57;9.75;;;23.50;99.90;;;;;;5042693;28;21912;-54
2023/06/19 09:06:20;;;;;;;9.82;8.90;;;23.60;99.90;;;;;;5081759;28;20193;-51
2023/06/19 09:08:46;;;;;;;9.95;9.15;;;23.70;99.90;;;;;;5078982;28;20221;-52
2023/06/19 09:11:20;;;;;;;10.40;9.40;;;23.80;99.90;;;;;;5075922;28;20218;-54
2023/06/19 09:13:58;;;;;;;9.80;8.95;;;23.80;99.90;;;;;;5056924;28;20729;-54
2023/06/19 09:16:24;;;;;;;10.30;9.25;;;23.90;99.90;;;;;;5058184;28;20859;-56
2023/06/19 09:18:52;;;;;;;10.32;9.48;;;23.90;99.90;;;;;;5060128;28;20202;-53
2023/06/19 09:21:23;;;;;;;10.38;9.27;;;24.00;99.60;;;;;;5063154;28;20205;-54
2023/06/19 09:23:51;;;;;;;9.45;8.65;;;24.10;99.70;;;;;;5079281;28;20947;-53
2023/06/19 09:26:21;;;;;;;9.50;8.68;;;24.20;99.40;;;;;;5050056;28;20206;-54
2023/06/19 09:28:50;;;;;;;10.30;9.23;;;24.30;99.00;;;;;;5080916;28;20898;-52
2023/06/19 09:31:16;;;;;;;10.30;9.27;;;24.40;99.10;;;;;;5076908;28;20230;-52
2023/06/19 09:33:44;;;;;;;9.65;8.88;;;24.50;98.70;;;;;;5077090;28;20699;-51
2023/06/19 09:36:11;;;;;;;10.18;9.27;;;24.60;98.70;;;;;;5059594;28;20237;-54
2023/06/19 09:38:40;;;;;;;10.50;9.48;;;24.70;98.40;;;;;;5076462;28;20197;-55
2023/06/19 09:41:10;;;;;;;10.35;9.45;;;24.80;97.90;;;;;;5079698;28;20222;-53
2023/06/19 09:43:39;;;;;;;10.38;9.43;;;25.00;98.00;;;;;;5081722;28;20252;-53
2023/06/19 09:46:07;;;;;;;10.10;9.13;;;25.10;97.40;;;;;;5086865;28;20203;-49
2023/06/19 09:48:35;;;;;;;9.38;8.55;;;25.10;96.90;;;;;;5071480;28;20267;-52
2023/06/19 09:51:13;;;;;;;9.88;9.18;;;25.20;96.90;;;;;;5051426;28;20222;-51
2023/06/19 09:53:41;;;;;;;9.77;8.77;;;25.30;96.50;;;;;;5081669;28;20903;-53
2023/06/19 09:56:08;;;;;;;8.90;8.20;;;25.50;96.40;;;;;;5078982;28;20201;-53
2023/06/19 09:58:36;;;;;;;9.13;8.25;;;25.60;96.00;;;;;;5083038;28;20186;-53
2023/06/19 10:01:05;;;;;;;9.27;8.50;;;25.80;95.80;;;;;;5081473;28;20210;-54
2023/06/19 10:03:32;;;;;;;9.77;8.98;;;25.90;95.00;;;;;;5078320;28;20206;-53
2023/06/19 10:06:00;;;;;;;9.27;8.32;;;26.00;94.40;;;;;;5085143;28;20583;-48
2023/06/19 10:08:32;;;;;;;9.32;8.48;;;25.90;93.80;;;;;;5062774;28;20234;-55
2023/06/19 10:11:00;;;;;;;8.93;8.23;;;26.00;94.00;;;;;;5078126;28;20240;-53
2023/06/19 10:13:35;;;;;;;9.00;7.70;;;26.00;93.50;;;;;;5078106;28;20247;-56
2023/06/19 10:16:02;;;;;;;9.73;8.55;;;26.20;99.90;;;;;;5086363;28;20181;-53
2023/06/19 10:18:29;;;;;;;9.43;8.63;;;26.20;92.30;;;;;;5072671;28;20879;-51
2023/06/19 10:20:56;;;;;;;9.18;8.27;;;26.30;92.00;;;;;;5082366;28;20222;-47
2023/06/19 10:23:24;;;;;;;9.73;8.85;;;26.30;92.10;;;;;;5063062;28;20668;-53
2023/06/19 10:25:57;;;;;;;10.07;8.82;;;26.40;98.40;;;;;;5070469;28;21058;-48
2023/06/19 10:28:27;;;;;;;9.60;8.70;;;26.60;91.60;;;;;;5084904;28;20664;-55
2023/06/19 10:30:55;;;;;;;9.75;8.85;;;26.90;91.30;;;;;;5085539;28;20214;-48
2023/06/19 10:33:23;;;;;;;10.10;8.88;;;26.70;90.50;;;;;;5051206;28;20194;-55
2023/06/19 10:35:49;;;;;;;11.30;9.07;;;26.60;91.00;;;;;;5081881;28;20194;-53
2023/06/19 10:38:17;;;;;;;9.90;9.05;;;26.60;91.00;;;;;;5077574;28;20236;-54
2023/06/19 10:40:45;;;;;;;10.75;9.40;;;26.70;90.80;;;;;;5061621;28;20990;-51
2023/06/19 10:43:12;;;;;;;9.98;9.07;;;26.80;91.10;;;;;;5086161;28;20559;-50
2023/06/19 10:45:40;;;;;;;10.63;9.10;;;26.90;90.50;;;;;;5082331;28;20963;-51
2023/06/19 10:48:07;;;;;;;9.88;8.88;;;27.10;90.70;;;;;;5071143;28;20216;-51
2023/06/19 10:50:40;;;;;;;10.52;9.70;;;27.20;90.40;;;;;;5060010;28;20210;-51
2023/06/19 10:53:08;;;;;;;9.50;8.55;;;27.20;90.00;;;;;;5085487;28;20202;-54
2023/06/19 10:55:35;;;;;;;10.55;9.70;;;27.20;90.60;;;;;;5059572;28;20209;-52
2023/06/19 10:58:02;;;;;;;11.02;9.98;;;27.50;90.00;;;;;;5084730;28;20190;-53
2023/06/19 11:00:30;;;;;;;10.93;10.00;;;27.60;89.00;;;;;;5078115;28;20933;-56
2023/06/19 11:02:59;;;;;;;11.45;10.52;;;27.60;88.40;;;;;;5083638;28;20221;-54
2023/06/19 11:05:28;;;;;;;10.38;9.38;;;27.70;88.40;;;;;;5078188;28;20237;-53
2023/06/19 11:07:56;;;;;;;10.80;9.80;;;27.80;88.10;;;;;;5083197;28;20190;-53
2023/06/19 11:10:25;;;;;;;10.77;9.82;;;27.70;87.30;;;;;;5052626;28;21153;-51
2023/06/19 11:12:55;;;;;;;11.05;10.02;;;27.50;87.70;;;;;;5069088;28;20849;-54
2023/06/19 11:15:29;;;;;;;12.23;11.05;;;27.60;87.10;;;;;;5074164;28;20201;-51
2023/06/19 11:17:58;;;;;;;11.50;10.48;;;27.70;86.80;;;;;;5082009;28;20197;-52
2023/06/19 11:20:25;;;;;;;10.68;9.88;;;27.80;86.30;;;;;;5071338;28;20309;-52
2023/06/19 11:22:57;;;;;;;10.48;9.68;;;27.70;86.70;;;;;;5079517;28;20190;-50
2023/06/19 11:25:24;;;;;;;12.05;10.95;;;27.80;85.90;;;;;;5062200;28;20211;-47
2023/06/19 11:27:51;;;;;;;10.75;9.65;;;27.80;85.80;;;;;;5052092;28;20205;-53
2023/06/19 11:30:20;;;;;;;10.27;9.23;;;27.80;86.10;;;;;;5077418;28;20217;-51
2023/06/19 11:32:48;;;;;;;10.77;9.77;;;27.90;86.50;;;;;;5062776;28;20200;-56
2023/06/19 11:35:17;;;;;;;10.38;9.57;;;28.00;85.40;;;;;;5076582;28;20209;-53
2023/06/19 11:37:45;;;;;;;10.32;9.45;;;28.10;84.90;;;;;;5063953;28;20194;-51
2023/06/19 11:40:14;;;;;;;10.73;9.82;;;28.10;83.70;;;;;;5065444;28;20213;-54
2023/06/19 11:42:47;;;;;;;10.70;9.45;;;28.20;84.20;;;;;;5029373;28;20218;-52
2023/06/19 11:45:14;;;;;;;10.10;9.02;;;28.30;83.70;;;;;;5066308;28;20229;-54
2023/06/19 11:47:41;;;;;;;9.80;8.90;;;28.40;83.40;;;;;;5058026;28;20256;-54
2023/06/19 11:50:09;;;;;;;9.43;8.52;;;28.50;82.90;;;;;;5075806;28;20236;-52
2023/06/19 11:52:37;;;;;;;8.05;7.35;;;28.50;81.60;;;;;;5080583;28;20860;-49
2023/06/19 11:55:05;;;;;;;7.72;7.13;;;28.50;80.40;;;;;;5084320;28;20197;-54
2023/06/19 11:57:32;;;;;;;8.02;7.32;;;28.60;80.10;;;;;;5054869;28;20256;-55
2023/06/19 11:59:59;;;;;;;7.43;6.75;;;28.60;78.50;;;;;;5078506;28;20226;-54
2023/06/19 12:02:26;;;;;;;6.78;6.28;;;28.50;78.50;;;;;;5080566;28;20215;-56
2023/06/19 12:04:53;;;;;;;7.38;6.65;;;28.70;78.40;;;;;;5073671;28;20272;-47
2023/06/19 12:07:20;;;;;;;8.55;7.07;;;29.00;77.10;;;;;;5079794;28;20202;-52
2023/06/19 12:09:48;;;;;;;7.25;6.75;;;29.00;76.10;;;;;;5081228;28;20206;-48
2023/06/19 12:12:15;;;;;;;7.93;7.28;;;29.00;75.90;;;;;;5067483;28;20221;-53
2023/06/19 12:14:42;;;;;;;7.55;6.88;;;28.90;75.50;;;;;;5056959;28;20265;-48
2023/06/19 12:17:09;;;;;;;7.05;6.55;;;28.70;75.50;;;;;;5083650;28;20198;-54
2023/06/19 12:19:36;;;;;;;7.07;6.47;;;28.60;76.60;;;;;;5080203;28;20870;-50
2023/06/19 12:22:05;;;;;;;7.18;6.57;;;28.80;76.60;;;;;;5077196;28;20210;-51
2023/06/19 12:24:31;;;;;;;7.38;6.88;;;28.90;75.70;;;;;;5074083;28;20190;-52
2023/06/19 12:27:00;;;;;;;7.50;6.82;;;28.60;75.90;;;;;;5073236;28;20278;-52
2023/06/19 12:29:27;;;;;;;7.28;6.50;;;28.40;75.90;;;;;;5057131;28;20897;-54
2023/06/19 12:31:53;;;;;;;7.43;6.78;;;28.30;76.60;;;;;;5082638;28;20190;-48
2023/06/19 12:34:21;;;;;;;6.93;6.32;;;28.10;76.60;;;;;;5082842;28;20197;-56
2023/06/19 12:36:48;;;;;;;6.78;6.18;;;28.00;77.00;;;;;;5069946;28;20926;-51
2023/06/19 12:39:16;;;;;;;6.90;6.20;;;27.90;77.50;;;;;;5082688;28;20566;-49
2023/06/19 12:41:44;;;;;;;7.72;7.13;;;27.70;78.10;;;;;;5081012;28;20277;-54
2023/06/19 12:44:12;;;;;;;7.65;6.95;;;27.60;78.20;;;;;;5073844;28;20664;-48
2023/06/19 12:46:39;;;;;;;6.97;6.28;;;27.70;78.60;;;;;;5056428;28;20912;-55
2023/06/19 12:49:06;;;;;;;7.00;6.50;;;27.80;78.80;;;;;;5078443;28;20186;-53